createdAt,value
2018-04-18T00:02:12.987Z,10.70
2018-04-18T00:04:40.492Z,10.70
2018-04-18T00:07:08.005Z,10.60
2018-04-18T00:09:36.277Z,10.60
2018-04-18T00:12:03.796Z,10.60
2018-04-18T00:14:31.322Z,10.50
2018-04-18T00:16:59.621Z,10.40
2018-04-18T00:19:27.901Z,10.40
2018-04-18T00:21:55.424Z,10.40
2018-04-18T00:24:22.927Z,10.40
2018-04-18T00:26:50.445Z,10.30
2018-04-18T00:29:17.953Z,10.30
2018-04-18T00:31:45.488Z,10.30
2018-04-18T00:34:12.989Z,10.30
2018-04-18T00:36:40.488Z,10.40
2018-04-18T00:39:08.021Z,10.30
2018-04-18T00:41:35.529Z,10.30
2018-04-18T00:44:03.050Z,10.20
2018-04-18T00:46:30.553Z,10.20
2018-04-18T00:48:58.081Z,10.10
2018-04-18T00:51:25.581Z,10.10
2018-04-18T00:53:53.117Z,10.10
2018-04-18T00:56:21.385Z,10.10
2018-04-18T00:58:49.672Z,10.00
2018-04-18T01:01:17.190Z,10.00
2018-04-18T01:03:44.712Z,10.00
2018-04-18T01:06:12.217Z,10.10
2018-04-18T01:08:39.736Z,10.00
2018-04-18T01:11:07.241Z,9.90
2018-04-18T01:13:34.768Z,9.90
2018-04-18T01:16:02.275Z,9.80
2018-04-18T01:18:30.561Z,9.80
2018-04-18T01:20:58.057Z,9.80
2018-04-18T01:23:25.572Z,9.80
2018-04-18T01:25:53.063Z,9.80
2018-04-18T01:28:20.593Z,9.70
2018-04-18T01:30:48.092Z,9.70
2018-04-18T01:33:15.619Z,9.70
2018-04-18T01:35:43.119Z,9.70
2018-04-18T01:38:10.611Z,9.60
2018-04-18T01:40:38.138Z,9.60
2018-04-18T01:43:05.637Z,9.60
2018-04-18T01:45:33.151Z,9.60
2018-04-18T01:48:01.437Z,9.50
2018-04-18T01:50:29.722Z,9.50
2018-04-18T01:52:57.994Z,9.50
2018-04-18T01:55:25.515Z,9.50
2018-04-18T01:57:53.027Z,9.40
2018-04-18T02:00:20.547Z,9.40
2018-04-18T02:02:48.053Z,9.40
2018-04-18T02:05:15.585Z,9.40
2018-04-18T02:07:43.107Z,9.50
2018-04-18T02:10:10.637Z,9.40
2018-04-18T02:12:38.153Z,9.40
2018-04-18T02:15:05.673Z,9.40
2018-04-18T02:17:34.054Z,9.50
2018-04-18T02:20:02.336Z,9.40
2018-04-18T02:22:30.608Z,9.40
2018-04-18T02:24:58.152Z,9.40
2018-04-18T02:27:25.648Z,9.40
2018-04-18T02:29:53.165Z,9.40
2018-04-18T02:32:20.677Z,9.50
2018-04-18T02:34:48.184Z,9.50
2018-04-18T02:37:16.458Z,9.50
2018-04-18T02:39:43.977Z,9.50
2018-04-18T02:42:11.483Z,9.50
2018-04-18T02:44:38.981Z,9.40
2018-04-18T02:47:07.273Z,9.30
2018-04-18T02:49:35.540Z,9.30
2018-04-18T02:52:03.058Z,9.20
2018-04-18T02:54:30.564Z,9.20
2018-04-18T02:56:58.086Z,9.30
2018-04-18T02:59:25.592Z,9.20
2018-04-18T03:01:53.103Z,9.10
2018-04-18T03:04:21.377Z,9.00
2018-04-18T03:06:48.899Z,9.00
2018-04-18T03:09:16.393Z,9.00
2018-04-18T03:11:43.917Z,8.90
2018-04-18T03:14:12.196Z,8.90
2018-04-18T03:16:40.495Z,8.90
2018-04-18T03:19:08.761Z,8.80
2018-04-18T03:21:36.293Z,8.80
2018-04-18T03:24:03.792Z,8.80
2018-04-18T03:26:31.319Z,8.90
2018-04-18T03:28:58.820Z,8.80
2018-04-18T03:31:26.341Z,8.80
2018-04-18T03:33:54.603Z,8.80
2018-04-18T03:36:22.114Z,8.80
2018-04-18T03:38:49.612Z,8.80
2018-04-18T03:41:17.109Z,8.80
2018-04-18T03:43:44.633Z,8.90
2018-04-18T03:46:12.996Z,8.80
2018-04-18T03:48:41.289Z,8.80
2018-04-18T03:51:09.560Z,8.80
2018-04-18T03:53:37.076Z,8.70
2018-04-18T03:56:04.589Z,8.80
2018-04-18T03:58:32.795Z,8.80
2018-04-18T04:01:01.065Z,8.90
2018-04-18T04:03:28.587Z,8.90
2018-04-18T04:05:56.084Z,8.90
2018-04-18T04:08:23.606Z,8.90
2018-04-18T04:10:51.867Z,8.70
2018-04-18T04:13:19.382Z,8.70
2018-04-18T04:15:46.885Z,8.70
2018-04-18T04:21:29.432Z,8.70
2018-04-18T04:27:02.805Z,8.80
2018-04-18T04:29:30.329Z,8.80
2018-04-18T04:31:57.829Z,8.80
2018-04-18T04:34:25.351Z,8.80
2018-04-18T04:36:53.616Z,8.90
2018-04-18T04:39:21.148Z,8.80
2018-04-18T04:41:48.648Z,8.90
2018-04-18T04:44:16.188Z,8.80
2018-04-18T04:46:43.693Z,8.90
2018-04-18T04:49:11.213Z,9.00
2018-04-18T04:51:39.138Z,9.00
2018-04-18T04:54:06.653Z,9.10
2018-04-18T04:56:34.912Z,9.30
2018-04-18T04:59:02.439Z,9.30
2018-04-18T05:01:30.200Z,9.40
2018-04-18T05:03:57.715Z,9.60
2018-04-18T05:06:25.539Z,9.80
2018-04-18T05:08:53.832Z,10.00
2018-04-18T05:11:22.108Z,10.20
2018-04-18T05:13:50.389Z,10.30
2018-04-18T05:16:17.915Z,10.30
2018-04-18T05:18:45.411Z,10.50
2018-04-18T05:21:12.958Z,10.60
2018-04-18T05:23:40.452Z,10.80
2018-04-18T05:26:07.971Z,11.00
2018-04-18T05:28:35.476Z,11.40
2018-04-18T05:31:03.032Z,11.70
2018-04-18T05:33:30.552Z,12.10
2018-04-18T05:35:58.097Z,12.80
2018-04-18T05:38:25.615Z,13.30
2018-04-18T05:40:53.923Z,15.30
2018-04-18T05:43:21.431Z,15.30
2018-04-18T05:45:48.949Z,17.00
2018-04-18T05:48:16.473Z,18.30
2018-04-18T05:50:43.993Z,20.20
2018-04-18T05:53:11.936Z,21.50
2018-04-18T05:55:39.556Z,22.30
2018-04-18T05:58:07.075Z,22.90
2018-04-18T06:00:34.571Z,23.40
2018-04-18T06:03:02.084Z,24.20
2018-04-18T06:05:29.624Z,25.00
2018-04-18T06:07:57.910Z,25.60
2018-04-18T06:10:26.171Z,26.30
2018-04-18T06:12:53.732Z,26.30
2018-04-18T06:15:21.226Z,26.70
2018-04-18T06:17:48.760Z,26.40
2018-04-18T06:20:16.263Z,25.80
2018-04-18T06:22:43.783Z,26.70
2018-04-18T06:25:11.284Z,27.40
2018-04-18T06:27:38.816Z,27.50
2018-04-18T06:30:06.329Z,28.40
2018-04-18T06:32:33.850Z,29.20
2018-04-18T06:35:02.142Z,29.80
2018-04-18T06:37:29.663Z,29.70
2018-04-18T06:39:57.215Z,30.30
2018-04-18T06:42:24.815Z,30.70
2018-04-18T06:44:52.376Z,31.80
2018-04-18T06:47:19.895Z,30.60
2018-04-18T06:49:47.396Z,30.30
2018-04-18T06:52:14.955Z,30.30
2018-04-18T06:54:42.588Z,30.70
2018-04-18T06:57:10.649Z,30.30
2018-04-18T06:59:38.166Z,30.80
2018-04-18T07:02:06.464Z,31.70
2018-04-18T07:04:34.039Z,31.60
2018-04-18T07:07:01.544Z,32.00
2018-04-18T07:09:29.845Z,31.40
2018-04-18T07:11:57.342Z,31.40
2018-04-18T07:14:25.693Z,31.30
2018-04-18T07:16:53.292Z,32.00
2018-04-18T07:19:20.824Z,33.00
2018-04-18T07:21:48.323Z,33.50
2018-04-18T07:24:15.843Z,33.00
2018-04-18T07:26:43.445Z,33.10
2018-04-18T07:29:11.048Z,34.00
2018-04-18T07:31:38.586Z,35.20
2018-04-18T07:34:06.113Z,34.20
2018-04-18T07:36:34.384Z,34.90
2018-04-18T07:39:01.913Z,34.80
2018-04-18T07:41:29.413Z,34.10
2018-04-18T07:43:56.933Z,34.60
2018-04-18T07:46:24.453Z,34.60
2018-04-18T07:48:51.968Z,33.50
2018-04-18T07:51:20.237Z,35.80
2018-04-18T07:53:48.540Z,35.80
2018-04-18T07:56:16.873Z,36.00
2018-04-18T07:58:44.393Z,35.90
2018-04-18T08:01:12.651Z,36.70
2018-04-18T08:03:40.150Z,36.70
2018-04-18T08:06:08.451Z,35.40
2018-04-18T08:08:35.987Z,35.30
2018-04-18T08:11:03.513Z,37.00
2018-04-18T08:13:31.019Z,36.10
2018-04-18T08:15:58.540Z,36.10
2018-04-18T08:18:26.833Z,36.20
2018-04-18T08:20:54.356Z,36.10
2018-04-18T08:23:21.962Z,36.50
2018-04-18T08:25:50.236Z,38.00
2018-04-18T08:28:17.731Z,37.90
2018-04-18T08:30:46.033Z,37.40
2018-04-18T08:33:13.663Z,37.40
2018-04-18T08:35:41.177Z,37.70
2018-04-18T08:38:08.731Z,39.20
2018-04-18T08:40:37.028Z,38.70
2018-04-18T08:43:05.313Z,38.50
2018-04-18T08:45:33.638Z,38.80
2018-04-18T08:48:01.143Z,38.80
2018-04-18T08:50:28.661Z,38.60
2018-04-18T08:52:56.189Z,37.60
2018-04-18T08:55:23.752Z,36.10
2018-04-18T08:57:51.255Z,37.70
2018-04-18T09:00:19.670Z,37.90
2018-04-18T09:02:47.548Z,37.90
2018-04-18T09:05:15.386Z,38.10
2018-04-18T09:07:43.944Z,36.10
2018-04-18T09:10:11.731Z,36.00
2018-04-18T09:12:40.358Z,37.30
2018-04-18T09:15:07.911Z,37.30
2018-04-18T09:17:35.469Z,37.70
2018-04-18T09:20:02.992Z,37.80
2018-04-18T09:22:31.287Z,37.10
2018-04-18T09:24:59.643Z,37.20
2018-04-18T09:27:27.165Z,37.20
2018-04-18T09:29:54.734Z,37.00
2018-04-18T09:32:22.276Z,33.50
2018-04-18T09:34:49.781Z,34.10
2018-04-18T09:37:17.300Z,34.40
2018-04-18T09:39:44.824Z,33.00
2018-04-18T09:42:12.358Z,33.30
2018-04-18T09:44:40.672Z,33.80
2018-04-18T09:47:08.959Z,33.30
2018-04-18T09:49:37.248Z,33.00
2018-04-18T09:52:05.532Z,32.40
2018-04-18T09:54:33.792Z,31.80
2018-04-18T09:57:01.311Z,31.70
2018-04-18T09:59:28.840Z,31.20
2018-04-18T10:01:56.456Z,30.30
2018-04-18T10:04:28.961Z,29.70
2018-04-18T10:06:56.480Z,29.30
2018-04-18T10:09:24.084Z,28.60
2018-04-18T10:11:51.628Z,28.40
2018-04-18T10:14:19.243Z,28.20
2018-04-18T10:16:46.740Z,28.00
2018-04-18T10:19:14.373Z,28.00
2018-04-18T10:21:41.922Z,27.60
2018-04-18T10:24:09.432Z,27.60
2018-04-18T10:26:36.974Z,27.40
2018-04-18T10:29:05.396Z,27.30
2018-04-18T10:31:32.902Z,27.30
2018-04-18T10:34:00.420Z,26.70
2018-04-18T10:36:28.017Z,26.70
2018-04-18T10:38:55.567Z,26.50
2018-04-18T10:41:23.072Z,26.30
2018-04-18T10:43:50.659Z,26.20
2018-04-18T10:46:19.111Z,26.10
2018-04-18T10:48:46.649Z,26.10
2018-04-18T10:51:14.961Z,26.20
2018-04-18T10:53:42.486Z,26.20
2018-04-18T10:56:10.004Z,26.40
2018-04-18T10:58:37.572Z,26.30
2018-04-18T11:01:05.032Z,26.50
2018-04-18T11:03:33.332Z,26.70
2018-04-18T11:06:00.879Z,26.60
2018-04-18T11:08:28.396Z,26.40
2018-04-18T11:10:55.901Z,26.10
2018-04-18T11:13:23.418Z,26.10
2018-04-18T11:15:50.916Z,25.90
2018-04-18T11:18:18.436Z,25.70
2018-04-18T11:20:47.712Z,26.10
2018-04-18T11:23:15.277Z,26.10
2018-04-18T11:25:42.803Z,26.20
2018-04-18T11:28:11.075Z,25.80
2018-04-18T11:30:38.880Z,25.80
2018-04-18T11:33:07.251Z,26.10
2018-04-18T11:35:34.891Z,26.10
2018-04-18T11:38:02.409Z,26.00
2018-04-18T11:40:30.709Z,25.60
2018-04-18T11:42:58.247Z,25.60
2018-04-18T11:45:26.011Z,25.80
2018-04-18T11:47:53.524Z,25.90
2018-04-18T11:50:21.070Z,25.80
2018-04-18T11:52:48.807Z,25.90
2018-04-18T11:55:16.451Z,25.80
2018-04-18T11:57:43.965Z,26.00
2018-04-18T12:00:11.501Z,26.00
2018-04-18T12:02:39.079Z,25.90
2018-04-18T12:05:06.600Z,25.90
2018-04-18T12:07:34.118Z,25.90
2018-04-18T12:10:01.656Z,25.90
2018-04-18T12:12:29.919Z,25.90
2018-04-18T12:14:57.447Z,25.90
2018-04-18T12:17:24.959Z,25.90
2018-04-18T12:19:52.508Z,26.00
2018-04-18T12:22:20.237Z,25.70
2018-04-18T12:24:48.524Z,25.70
2018-04-18T12:27:16.801Z,25.70
2018-04-18T12:29:44.330Z,25.70
2018-04-18T12:32:11.837Z,25.70
2018-04-18T12:34:39.368Z,25.90
2018-04-18T12:37:06.882Z,25.90
2018-04-18T12:39:34.692Z,26.10
2018-04-18T12:42:02.976Z,26.10
2018-04-18T12:44:31.268Z,26.20
2018-04-18T12:46:59.562Z,26.10
2018-04-18T12:49:28.532Z,26.20
2018-04-18T12:51:56.052Z,26.10
2018-04-18T12:54:23.572Z,25.90
2018-04-18T12:56:51.916Z,25.70
2018-04-18T12:59:19.468Z,25.70
2018-04-18T13:01:46.973Z,25.70
2018-04-18T13:04:14.504Z,25.60
2018-04-18T13:06:42.819Z,25.80
2018-04-18T13:09:10.341Z,25.80
2018-04-18T13:11:37.873Z,25.70
2018-04-18T13:14:05.376Z,25.80
2018-04-18T13:16:32.932Z,26.00
2018-04-18T13:19:00.455Z,26.00
2018-04-18T13:21:27.980Z,25.80
2018-04-18T13:23:55.494Z,25.80
2018-04-18T13:26:23.821Z,26.00
2018-04-18T13:28:51.320Z,26.00
2018-04-18T13:31:18.849Z,26.10
2018-04-18T13:33:46.350Z,26.20
2018-04-18T13:36:13.877Z,26.30
2018-04-18T13:38:41.395Z,26.30
2018-04-18T13:41:08.982Z,26.30
2018-04-18T13:43:36.680Z,26.50
2018-04-18T13:46:04.204Z,26.40
2018-04-18T13:48:31.742Z,26.30
2018-04-18T13:50:59.299Z,26.30
2018-04-18T13:53:27.595Z,26.10
2018-04-18T13:55:55.141Z,26.10
2018-04-18T13:58:22.747Z,26.20
2018-04-18T14:00:50.286Z,25.90
2018-04-18T14:03:17.800Z,26.00
2018-04-18T14:05:45.332Z,26.00
2018-04-18T14:10:46.974Z,26.20
2018-04-18T14:13:14.537Z,26.20
2018-04-18T14:15:42.063Z,26.10
2018-04-18T14:18:09.742Z,26.10
2018-04-18T14:20:37.300Z,26.20
2018-04-18T14:23:04.809Z,26.10
2018-04-18T14:25:34.678Z,26.00
2018-04-18T14:28:02.273Z,26.00
2018-04-18T14:30:29.797Z,26.10
2018-04-18T14:32:57.373Z,26.10
2018-04-18T14:35:25.110Z,26.00
2018-04-18T14:37:52.860Z,26.10
2018-04-18T14:40:20.373Z,26.10
2018-04-18T14:42:48.731Z,26.20
2018-04-18T14:45:16.249Z,26.20
2018-04-18T14:47:43.773Z,26.20
2018-04-18T14:50:11.333Z,26.10
2018-04-18T14:52:38.890Z,26.10
2018-04-18T14:55:06.403Z,26.00
2018-04-18T14:57:33.938Z,26.00
2018-04-18T15:00:01.429Z,26.10
2018-04-18T15:02:28.956Z,26.00
2018-04-18T15:04:56.523Z,26.00
2018-04-18T15:07:24.052Z,26.10
2018-04-18T15:09:51.578Z,26.10
2018-04-18T15:12:19.091Z,26.10
2018-04-18T15:14:46.589Z,26.10
2018-04-18T15:17:14.887Z,26.00
2018-04-18T15:19:43.188Z,26.00
2018-04-18T15:22:10.916Z,26.00
2018-04-18T15:24:38.427Z,26.00
2018-04-18T15:27:05.957Z,25.90
2018-04-18T15:29:33.477Z,26.00
2018-04-18T15:32:01.013Z,26.00
2018-04-18T15:34:28.513Z,26.00
2018-04-18T15:36:56.053Z,26.00
2018-04-18T15:39:23.667Z,26.00
2018-04-18T15:41:51.180Z,26.10
2018-04-18T15:44:18.684Z,25.90
2018-04-18T15:46:46.967Z,26.00
2018-04-18T15:49:14.512Z,26.00
2018-04-18T15:51:42.036Z,26.00
2018-04-18T15:54:10.519Z,25.90
2018-04-18T15:56:38.854Z,25.80
2018-04-18T15:59:06.380Z,25.80
2018-04-18T16:01:34.684Z,25.90
2018-04-18T16:04:02.241Z,25.90
2018-04-18T16:06:30.506Z,25.80
2018-04-18T16:08:58.060Z,25.80
2018-04-18T16:11:25.561Z,25.80
2018-04-18T16:13:53.852Z,25.80
2018-04-18T16:16:22.132Z,25.70
2018-04-18T16:18:49.688Z,25.70
2018-04-18T16:21:17.189Z,25.70
2018-04-18T16:23:45.498Z,25.70
2018-04-18T16:26:13.286Z,25.70
2018-04-18T16:28:40.816Z,25.60
2018-04-18T16:31:08.324Z,25.60
2018-04-18T16:33:35.931Z,25.60
2018-04-18T16:36:03.624Z,25.50
2018-04-18T16:38:31.140Z,25.50
2018-04-18T16:40:58.833Z,25.40
2018-04-18T16:43:26.371Z,25.40
2018-04-18T16:45:54.660Z,25.40
2018-04-18T16:48:22.942Z,25.40
2018-04-18T16:50:51.229Z,25.30
2018-04-18T16:53:18.770Z,25.20
2018-04-18T16:55:46.291Z,25.30
2018-04-18T16:58:13.823Z,25.20
2018-04-18T17:00:41.429Z,25.10
2018-04-18T17:03:09.731Z,25.10
2018-04-18T17:05:37.270Z,25.10
2018-04-18T17:08:04.785Z,25.00
2018-04-18T17:10:32.325Z,25.00
2018-04-18T17:13:00.598Z,24.80
2018-04-18T17:15:28.113Z,24.80
2018-04-18T17:17:55.648Z,24.80
2018-04-18T17:20:23.932Z,24.60
2018-04-18T17:22:51.432Z,24.60
2018-04-18T17:25:18.951Z,24.50
2018-04-18T17:27:46.485Z,24.50
2018-04-18T17:30:14.000Z,24.40
2018-04-18T17:32:41.496Z,24.30
2018-04-18T17:35:09.776Z,24.10
2018-04-18T17:37:37.267Z,24.10
2018-04-18T17:40:05.553Z,24.00
2018-04-18T17:42:33.813Z,23.80
2018-04-18T17:45:01.356Z,23.80
2018-04-18T17:47:28.849Z,23.70
2018-04-18T17:49:56.373Z,23.50
2018-04-18T17:52:23.893Z,23.30
2018-04-18T17:54:51.408Z,23.10
2018-04-18T17:57:18.930Z,23.00
2018-04-18T17:59:46.428Z,22.90
2018-04-18T18:02:13.945Z,22.80
2018-04-18T18:04:41.448Z,22.60
2018-04-18T18:07:09.112Z,22.40
2018-04-18T18:09:36.632Z,22.10
2018-04-18T18:12:04.912Z,21.50
2018-04-18T18:14:33.188Z,21.30
2018-04-18T18:17:01.478Z,21.10
2018-04-18T18:19:28.977Z,21.00
2018-04-18T18:21:56.510Z,21.00
2018-04-18T18:24:24.004Z,20.80
2018-04-18T18:26:52.306Z,20.60
2018-04-18T18:29:19.818Z,20.60
2018-04-18T18:31:47.336Z,20.60
2018-04-18T18:34:15.678Z,20.10
2018-04-18T18:36:43.177Z,20.10
2018-04-18T18:39:10.728Z,19.90
2018-04-18T18:41:38.252Z,19.70
2018-04-18T18:44:05.788Z,19.50
2018-04-18T18:46:33.298Z,19.30
2018-04-18T18:49:00.845Z,19.10
2018-04-18T18:51:29.154Z,18.80
2018-04-18T18:53:56.676Z,18.70
2018-04-18T18:56:24.194Z,18.60
2018-04-18T18:58:52.501Z,18.40
2018-04-18T19:01:20.022Z,18.40
2018-04-18T19:03:47.558Z,18.40
2018-04-18T19:06:15.078Z,18.40
2018-04-18T19:08:43.429Z,18.40
2018-04-18T19:11:10.928Z,18.30
2018-04-18T19:13:38.457Z,18.20
2018-04-18T19:16:05.957Z,18.10
2018-04-18T19:18:33.584Z,17.90
2018-04-18T19:21:01.101Z,17.80
2018-04-18T19:23:28.636Z,17.70
2018-04-18T19:25:56.137Z,17.60
2018-04-18T19:28:23.716Z,17.60
2018-04-18T19:30:51.178Z,17.40
2018-04-18T19:33:18.681Z,17.40
2018-04-18T19:35:46.264Z,17.20
2018-04-18T19:38:14.542Z,17.30
2018-04-18T19:40:42.836Z,17.30
2018-04-18T19:43:11.129Z,17.20
2018-04-18T19:45:39.441Z,17.30
2018-04-18T19:48:07.006Z,17.30
2018-04-18T19:50:34.528Z,17.30
2018-04-18T19:53:02.028Z,17.70
2018-04-18T19:55:30.319Z,17.70
2018-04-18T19:57:58.633Z,17.60
2018-04-18T20:00:26.159Z,17.60
2018-04-18T20:02:53.736Z,17.50
2018-04-18T20:05:21.308Z,17.40
2018-04-18T20:07:48.900Z,17.50
2018-04-18T20:10:16.421Z,17.60
2018-04-18T20:12:44.010Z,17.40
2018-04-18T20:15:11.556Z,17.50
2018-04-18T20:17:39.088Z,17.60
2018-04-18T20:20:07.380Z,17.40
2018-04-18T20:22:35.717Z,17.50
2018-04-18T20:25:03.257Z,17.40
2018-04-18T20:27:30.822Z,17.30
2018-04-18T20:29:59.157Z,17.00
2018-04-18T20:32:26.714Z,17.00
2018-04-18T20:34:54.249Z,17.00
2018-04-18T20:37:22.558Z,16.70
2018-04-18T20:39:50.100Z,16.70
2018-04-18T20:42:18.536Z,16.50
2018-04-18T20:44:46.057Z,16.40
2018-04-18T20:47:13.606Z,16.40
2018-04-18T20:49:41.162Z,16.20
2018-04-18T20:52:08.743Z,16.10
2018-04-18T20:54:36.282Z,16.10
2018-04-18T20:57:03.824Z,15.90
2018-04-18T20:59:31.343Z,15.90
2018-04-18T21:01:58.985Z,15.80
2018-04-18T21:04:27.304Z,15.70
2018-04-18T21:06:54.853Z,15.70
2018-04-18T21:09:22.426Z,15.70
2018-04-18T21:11:49.989Z,15.60
2018-04-18T21:14:18.307Z,15.50
2018-04-18T21:16:45.881Z,15.40
2018-04-18T21:19:13.452Z,15.50
2018-04-18T21:21:41.014Z,15.40
2018-04-18T21:24:08.560Z,15.50
2018-04-18T21:26:36.864Z,15.20
2018-04-18T21:29:04.410Z,15.20
2018-04-18T21:31:31.990Z,15.20
2018-04-18T21:34:00.265Z,15.10
2018-04-18T21:36:27.819Z,15.10
2018-04-18T21:38:55.373Z,15.10
2018-04-18T21:41:22.906Z,15.20
2018-04-18T21:43:51.211Z,15.10
2018-04-18T21:46:18.800Z,15.10
2018-04-18T21:48:46.336Z,15.00
2018-04-18T21:51:14.700Z,14.90
2018-04-18T21:53:42.208Z,14.90
2018-04-18T21:56:09.748Z,14.90
2018-04-18T21:58:37.259Z,14.80
2018-04-18T22:01:04.780Z,14.70
2018-04-18T22:03:32.328Z,14.70
2018-04-18T22:05:59.852Z,14.60
2018-04-18T22:08:28.179Z,14.40
2018-04-18T22:10:55.693Z,14.40
2018-04-18T22:13:23.222Z,14.30
2018-04-18T22:15:50.733Z,14.30
2018-04-18T22:18:18.351Z,14.30
2018-04-18T22:20:45.917Z,14.30
2018-04-18T22:23:13.478Z,14.30
2018-04-18T22:25:41.789Z,14.30
2018-04-18T22:28:09.336Z,14.20
2018-04-18T22:30:37.622Z,14.20
2018-04-18T22:33:05.935Z,14.10
2018-04-18T22:35:33.470Z,14.10
2018-04-18T22:38:01.007Z,14.00
2018-04-18T22:40:28.561Z,13.90
2018-04-18T22:42:56.157Z,13.80
2018-04-18T22:45:23.679Z,13.80
2018-04-18T22:47:52.025Z,13.80
2018-04-18T22:50:19.550Z,13.70
2018-04-18T22:52:47.138Z,13.70
2018-04-18T22:55:14.673Z,13.70
2018-04-18T22:57:43.028Z,13.70
2018-04-18T23:00:10.624Z,13.70
2018-04-18T23:02:38.165Z,13.60
2018-04-18T23:05:05.742Z,13.50
2018-04-18T23:07:33.274Z,13.50
2018-04-18T23:10:00.808Z,13.50
2018-04-18T23:12:28.348Z,13.50
2018-04-18T23:14:55.864Z,13.50
2018-04-18T23:17:23.398Z,13.60
2018-04-18T23:19:50.901Z,13.50
2018-04-18T23:22:31.063Z,13.50
2018-04-18T23:24:58.640Z,13.50
2018-04-18T23:27:26.244Z,13.40
2018-04-18T23:29:53.778Z,13.40
2018-04-18T23:32:21.296Z,13.30
2018-04-18T23:34:48.831Z,13.20
2018-04-18T23:37:16.387Z,13.20
2018-04-18T23:39:43.939Z,13.20
2018-04-18T23:42:11.480Z,13.40
2018-04-18T23:44:39.032Z,13.40
2018-04-18T23:47:07.316Z,13.50
2018-04-18T23:49:35.633Z,13.50
2018-04-18T23:52:03.191Z,13.50
2018-04-18T23:54:30.791Z,13.50
2018-04-18T23:56:58.320Z,13.40
2018-04-18T23:59:26.626Z,13.30
